createdAt,value
2023-04-18T00:00:19.061Z,195.67
2023-04-18T00:01:19.065Z,196.15
2023-04-18T00:02:19.175Z,195.68
2023-04-18T00:03:19.277Z,195.35
2023-04-18T00:04:19.617Z,195.70
2023-04-18T00:05:19.183Z,195.94
2023-04-18T00:06:19.099Z,195.81
2023-04-18T00:07:19.131Z,194.38
2023-04-18T00:08:19.164Z,194.89
2023-04-18T00:09:19.208Z,195.46
2023-04-18T00:10:19.200Z,194.96
2023-04-18T00:11:19.145Z,194.43
2023-04-18T00:12:19.158Z,194.90
2023-04-18T00:13:19.170Z,194.75
2023-04-18T00:14:19.150Z,194.63
2023-04-18T00:15:19.163Z,193.81
2023-04-18T00:16:19.188Z,195.05
2023-04-18T00:17:19.235Z,194.83
2023-04-18T00:18:19.216Z,194.16
2023-04-18T00:19:19.174Z,195.05
2023-04-18T00:20:19.224Z,194.22
2023-04-18T00:21:19.229Z,194.70
2023-04-18T00:22:19.223Z,194.93
2023-04-18T00:23:19.255Z,194.42
2023-04-18T00:24:19.256Z,193.28
2023-04-18T00:25:19.244Z,193.48
2023-04-18T00:26:19.257Z,193.49
2023-04-18T00:27:19.296Z,192.99
2023-04-18T00:28:19.310Z,193.22
2023-04-18T00:29:19.301Z,193.30
2023-04-18T00:30:19.331Z,193.09
2023-04-18T00:31:19.379Z,192.93
2023-04-18T00:32:19.387Z,193.30
2023-04-18T00:33:19.372Z,193.23
2023-04-18T00:34:19.378Z,193.84
2023-04-18T00:35:19.387Z,193.36
2023-04-18T00:36:19.408Z,193.64
2023-04-18T00:37:19.425Z,192.98
2023-04-18T00:38:19.374Z,194.00
2023-04-18T00:39:19.391Z,193.21
2023-04-18T00:40:19.395Z,193.10
2023-04-18T00:41:19.421Z,193.65
2023-04-18T00:42:19.450Z,193.58
2023-04-18T00:43:19.438Z,194.44
2023-04-18T00:44:19.446Z,193.55
2023-04-18T00:45:19.434Z,193.58
2023-04-18T00:46:19.490Z,193.65
2023-04-18T00:47:19.503Z,193.76
2023-04-18T00:48:19.465Z,193.44
2023-04-18T00:49:19.494Z,193.78
2023-04-18T00:50:19.462Z,194.02
2023-04-18T00:51:19.506Z,193.23
2023-04-18T00:52:19.490Z,192.91
2023-04-18T00:53:19.496Z,193.40
2023-04-18T00:54:19.502Z,192.78
2023-04-18T00:55:19.523Z,193.29
2023-04-18T00:56:19.507Z,192.98
2023-04-18T00:57:19.520Z,193.74
2023-04-18T00:58:19.530Z,193.98
2023-04-18T00:59:19.593Z,193.43
2023-04-18T01:00:19.564Z,193.52
2023-04-18T01:01:19.578Z,192.90
2023-04-18T01:02:19.725Z,193.31
2023-04-18T01:03:19.660Z,192.57
2023-04-18T01:04:19.859Z,192.62
2023-04-18T01:05:19.621Z,192.79
2023-04-18T01:06:19.626Z,192.69
2023-04-18T01:07:19.633Z,192.95
2023-04-18T01:08:19.669Z,191.98
2023-04-18T01:09:19.714Z,192.57
2023-04-18T01:10:19.693Z,192.06
2023-04-18T01:11:19.716Z,191.86
2023-04-18T01:12:19.741Z,192.09
2023-04-18T01:13:19.766Z,191.78
2023-04-18T01:14:19.792Z,191.65
2023-04-18T01:15:19.794Z,191.42
2023-04-18T01:16:19.850Z,190.95
2023-04-18T01:17:19.829Z,189.93
2023-04-18T01:18:19.841Z,190.79
2023-04-18T01:19:19.863Z,191.42
2023-04-18T01:20:19.907Z,191.14
2023-04-18T01:21:19.926Z,192.05
2023-04-18T01:22:19.908Z,190.92
2023-04-18T01:23:19.902Z,191.13
2023-04-18T01:24:19.927Z,190.53
2023-04-18T01:25:19.929Z,190.07
2023-04-18T01:26:19.949Z,190.59
2023-04-18T01:27:19.987Z,189.89
2023-04-18T01:28:19.949Z,190.20
2023-04-18T01:29:19.986Z,190.81
2023-04-18T01:30:19.981Z,189.91
2023-04-18T01:31:20.055Z,189.90
2023-04-18T01:32:20.083Z,189.42
2023-04-18T01:33:20.041Z,189.06
2023-04-18T01:34:20.060Z,189.27
2023-04-18T01:35:20.081Z,189.15
2023-04-18T01:36:20.089Z,188.54
2023-04-18T01:37:20.117Z,189.09
2023-04-18T01:38:20.109Z,188.80
2023-04-18T01:39:20.123Z,187.79
2023-04-18T01:40:20.154Z,187.81
2023-04-18T01:41:20.454Z,187.42
2023-04-18T01:42:20.213Z,187.03
2023-04-18T01:43:20.174Z,186.98
2023-04-18T01:44:20.192Z,187.63
2023-04-18T01:45:20.219Z,187.31
2023-04-18T01:46:20.272Z,188.38
2023-04-18T01:47:20.656Z,187.03
2023-04-18T01:48:20.643Z,187.72
2023-04-18T01:49:20.319Z,187.25
2023-04-18T01:50:20.276Z,186.60
2023-04-18T01:51:20.283Z,186.41
2023-04-18T01:52:20.269Z,186.45
2023-04-18T01:53:20.298Z,186.28
2023-04-18T01:54:20.288Z,186.25
2023-04-18T01:55:20.281Z,185.24
2023-04-18T01:56:20.346Z,185.19
2023-04-18T01:57:20.320Z,185.49
2023-04-18T01:58:20.328Z,185.87
2023-04-18T01:59:20.357Z,184.86
2023-04-18T02:00:20.384Z,185.18
2023-04-18T02:01:20.596Z,186.38
2023-04-18T02:02:20.598Z,185.30
2023-04-18T02:03:20.604Z,185.96
2023-04-18T02:04:20.456Z,186.46
2023-04-18T02:05:20.437Z,187.22
2023-04-18T02:06:20.465Z,186.50
2023-04-18T02:07:20.474Z,186.60
2023-04-18T02:08:20.490Z,187.74
2023-04-18T02:09:20.509Z,187.42
2023-04-18T02:10:20.519Z,187.90
2023-04-18T02:11:20.525Z,189.00
2023-04-18T02:12:20.560Z,189.03
2023-04-18T02:13:20.517Z,189.42
2023-04-18T02:14:20.546Z,190.37
2023-04-18T02:15:20.546Z,191.70
2023-04-18T02:16:20.700Z,192.46
2023-04-18T02:17:20.636Z,194.13
2023-04-18T02:18:20.579Z,193.80
2023-04-18T02:19:20.569Z,192.84
2023-04-18T02:20:20.608Z,191.97
2023-04-18T02:21:20.610Z,191.36
2023-04-18T02:22:20.626Z,191.12
2023-04-18T02:23:20.575Z,192.12
2023-04-18T02:24:20.623Z,190.80
2023-04-18T02:25:20.610Z,190.72
2023-04-18T02:26:20.568Z,190.35
2023-04-18T02:27:20.591Z,190.58
2023-04-18T02:28:20.578Z,190.10
2023-04-18T02:29:20.588Z,189.81
2023-04-18T02:30:20.582Z,189.55
2023-04-18T02:31:20.594Z,189.42
2023-04-18T02:32:20.602Z,189.45
2023-04-18T02:33:20.564Z,189.41
2023-04-18T02:34:20.560Z,189.54
2023-04-18T02:35:20.565Z,188.89
2023-04-18T02:36:20.556Z,188.88
2023-04-18T02:37:20.524Z,188.87
2023-04-18T02:38:20.529Z,188.47
2023-04-18T02:39:20.483Z,188.58
2023-04-18T02:40:20.472Z,188.43
2023-04-18T02:41:20.461Z,188.41
2023-04-18T02:42:20.451Z,188.94
2023-04-18T02:43:20.460Z,188.81
2023-04-18T02:44:20.392Z,187.85
2023-04-18T02:45:20.411Z,188.31
2023-04-18T02:46:20.471Z,187.82
2023-04-18T02:47:20.388Z,188.16
2023-04-18T02:48:20.384Z,187.77
2023-04-18T02:49:20.336Z,188.11
2023-04-18T02:50:20.340Z,187.78
2023-04-18T02:51:20.333Z,187.32
2023-04-18T02:52:20.311Z,186.82
2023-04-18T02:53:20.271Z,186.42
2023-04-18T02:54:20.290Z,186.75
2023-04-18T02:55:20.287Z,186.72
2023-04-18T02:56:20.262Z,186.52
2023-04-18T02:57:20.279Z,186.82
2023-04-18T02:58:20.238Z,186.58
2023-04-18T02:59:20.220Z,186.35
2023-04-18T03:00:20.227Z,187.11
2023-04-18T03:01:20.205Z,186.83
2023-04-18T03:02:20.235Z,186.30
2023-04-18T03:03:20.221Z,186.46
2023-04-18T03:04:20.202Z,186.57
2023-04-18T03:05:20.118Z,185.28
2023-04-18T03:06:20.122Z,184.93
2023-04-18T03:07:20.124Z,184.85
2023-04-18T03:08:20.099Z,185.57
2023-04-18T03:09:20.091Z,185.94
2023-04-18T03:10:20.083Z,185.90
2023-04-18T03:11:20.035Z,186.49
2023-04-18T03:12:20.037Z,185.51
2023-04-18T03:13:20.029Z,184.66
2023-04-18T03:14:20.023Z,185.01
2023-04-18T03:15:20.014Z,184.82
2023-04-18T03:16:20.058Z,184.93
2023-04-18T03:17:19.924Z,184.10
2023-04-18T03:18:19.958Z,184.50
2023-04-18T03:19:19.876Z,184.67
2023-04-18T03:20:19.892Z,184.57
2023-04-18T03:21:19.867Z,184.52
2023-04-18T03:22:19.861Z,184.35
2023-04-18T03:23:19.830Z,184.67
2023-04-18T03:24:19.826Z,184.68
2023-04-18T03:25:19.769Z,184.30
2023-04-18T03:26:19.771Z,183.28
2023-04-18T03:27:19.721Z,183.89
2023-04-18T03:28:19.694Z,182.65
2023-04-18T03:29:19.672Z,183.87
2023-04-18T03:30:19.713Z,184.28
2023-04-18T03:31:19.654Z,183.93
2023-04-18T03:32:19.663Z,184.40
2023-04-18T03:33:19.619Z,183.55
2023-04-18T03:34:19.574Z,183.15
2023-04-18T03:35:19.537Z,183.64
2023-04-18T03:36:19.521Z,182.39
2023-04-18T03:37:19.485Z,182.32
2023-04-18T03:38:19.494Z,182.62
2023-04-18T03:39:19.466Z,181.53
2023-04-18T03:40:19.417Z,182.51
2023-04-18T03:41:19.423Z,181.37
2023-04-18T03:42:19.360Z,180.93
2023-04-18T03:43:19.362Z,180.12
2023-04-18T03:44:19.338Z,181.83
2023-04-18T03:45:19.319Z,182.18
2023-04-18T03:46:19.341Z,182.06
2023-04-18T03:47:19.322Z,181.70
2023-04-18T03:48:19.255Z,181.52
2023-04-18T03:49:19.214Z,181.76
2023-04-18T03:50:19.200Z,180.46
2023-04-18T03:51:19.173Z,180.21
2023-04-18T03:52:19.162Z,179.97
2023-04-18T03:53:19.150Z,180.05
2023-04-18T03:54:19.129Z,180.69
2023-04-18T03:55:19.114Z,181.59
2023-04-18T03:56:19.148Z,181.45
2023-04-18T03:57:19.085Z,180.85
2023-04-18T03:58:19.051Z,180.83
2023-04-18T03:59:19.056Z,181.52
2023-04-18T04:00:19.050Z,180.88
2023-04-18T04:01:19.024Z,181.09
2023-04-18T04:02:19.220Z,180.40
2023-04-18T04:03:19.090Z,180.51
2023-04-18T04:04:19.154Z,179.56
2023-04-18T04:05:18.954Z,180.09
2023-04-18T04:06:18.875Z,180.67
2023-04-18T04:07:18.845Z,180.96
2023-04-18T04:08:18.878Z,180.35
2023-04-18T04:09:18.809Z,180.53
2023-04-18T04:10:18.758Z,180.74
2023-04-18T04:11:18.779Z,180.42
2023-04-18T04:12:18.748Z,181.01
2023-04-18T04:13:18.737Z,181.65
2023-04-18T04:14:18.755Z,179.59
2023-04-18T04:15:18.709Z,180.05
2023-04-18T04:16:18.746Z,179.25
2023-04-18T04:17:18.678Z,180.92
2023-04-18T04:18:18.682Z,180.43
2023-04-18T04:19:18.701Z,181.71
2023-04-18T04:20:18.672Z,180.04
2023-04-18T04:21:20.065Z,182.26
2023-04-18T04:22:18.709Z,180.67
2023-04-18T04:23:18.678Z,181.08
2023-04-18T04:24:18.692Z,180.83
2023-04-18T04:25:18.672Z,180.65
2023-04-18T04:26:18.634Z,180.31
2023-04-18T04:27:18.678Z,180.17
2023-04-18T04:28:18.666Z,179.89
2023-04-18T04:29:18.619Z,180.52
2023-04-18T04:30:18.642Z,179.98
2023-04-18T04:31:18.680Z,179.31
2023-04-18T04:32:18.663Z,179.31
2023-04-18T04:33:18.637Z,180.03
2023-04-18T04:34:18.652Z,180.45
2023-04-18T04:35:18.614Z,180.26
2023-04-18T04:36:19.073Z,180.12
2023-04-18T04:37:18.710Z,179.91
2023-04-18T04:38:18.621Z,179.01
2023-04-18T04:39:18.588Z,178.76
2023-04-18T04:40:18.592Z,180.20
2023-04-18T04:41:18.596Z,179.76
2023-04-18T04:42:18.609Z,181.50
2023-04-18T04:43:18.584Z,180.46
2023-04-18T04:44:18.612Z,179.30
2023-04-18T04:45:18.578Z,178.95
2023-04-18T04:46:18.675Z,179.24
2023-04-18T04:47:18.588Z,180.07
2023-04-18T04:48:18.587Z,179.71
2023-04-18T04:49:18.582Z,178.02
2023-04-18T04:50:18.603Z,178.69
2023-04-18T04:51:18.616Z,177.98
2023-04-18T04:52:18.601Z,177.31
2023-04-18T04:53:18.610Z,178.10
2023-04-18T04:54:18.631Z,177.53
2023-04-18T04:55:18.628Z,177.30
2023-04-18T04:56:18.655Z,178.55
2023-04-18T04:57:18.648Z,176.97
2023-04-18T04:58:18.654Z,177.52
2023-04-18T04:59:18.649Z,176.34
2023-04-18T05:00:18.658Z,176.63
2023-04-18T05:01:26.462Z,178.23
2023-04-18T05:02:18.732Z,178.44
2023-04-18T05:03:18.854Z,178.48
2023-04-18T05:04:18.904Z,178.45
2023-04-18T05:05:18.536Z,178.52
2023-04-18T05:06:18.508Z,178.83
2023-04-18T05:07:18.518Z,177.99
2023-04-18T05:08:18.430Z,177.89
2023-04-18T05:09:18.533Z,177.11
2023-04-18T05:10:18.331Z,177.91
2023-04-18T05:11:18.330Z,177.31
2023-04-18T05:12:18.267Z,178.15
2023-04-18T05:13:18.237Z,177.06
2023-04-18T05:14:18.147Z,178.90
2023-04-18T05:15:18.122Z,177.53
2023-04-18T05:16:18.098Z,178.95
2023-04-18T05:17:18.007Z,178.49
2023-04-18T05:18:17.985Z,177.95
2023-04-18T05:19:17.969Z,180.04
2023-04-18T05:20:17.896Z,177.48
2023-04-18T05:21:17.873Z,179.16
2023-04-18T05:22:17.839Z,176.71
2023-04-18T05:23:17.840Z,177.41
2023-04-18T05:24:17.853Z,177.00
2023-04-18T05:25:17.817Z,179.18
2023-04-18T05:26:17.800Z,177.02
2023-04-18T05:27:18.270Z,179.44
2023-04-18T05:28:17.878Z,178.77
2023-04-18T05:29:17.806Z,179.26
2023-04-18T05:30:17.829Z,178.65
2023-04-18T05:31:17.802Z,179.48
2023-04-18T05:32:17.799Z,178.06
2023-04-18T05:33:17.896Z,179.90
2023-04-18T05:34:17.775Z,179.29
2023-04-18T05:35:17.772Z,178.08
2023-04-18T05:36:17.771Z,178.06
2023-04-18T05:37:17.736Z,177.21
2023-04-18T05:38:17.914Z,179.87
2023-04-18T05:39:17.749Z,180.17
2023-04-18T05:40:17.749Z,182.67
2023-04-18T05:41:17.760Z,183.80
2023-04-18T05:42:17.710Z,185.63
2023-04-18T05:43:17.918Z,185.75
2023-04-18T05:44:17.948Z,187.76
2023-04-18T05:45:17.631Z,188.96
2023-04-18T05:46:24.625Z,191.93
2023-04-18T05:47:17.604Z,192.16
2023-04-18T05:48:17.538Z,192.81
2023-04-18T05:49:17.521Z,192.23
2023-04-18T05:50:17.488Z,191.60
2023-04-18T05:51:17.446Z,192.96
2023-04-18T05:52:17.402Z,195.93
2023-04-18T05:53:17.450Z,203.83
2023-04-18T05:54:17.336Z,198.62
2023-04-18T05:55:17.273Z,203.96
2023-04-18T05:56:17.265Z,207.75
2023-04-18T05:57:17.283Z,206.50
2023-04-18T05:58:17.168Z,209.83
2023-04-18T05:59:17.099Z,211.57
2023-04-18T06:00:17.106Z,210.40
2023-04-18T06:01:17.058Z,213.22
2023-04-18T06:02:17.084Z,213.73
2023-04-18T06:03:17.217Z,214.84
2023-04-18T06:04:17.318Z,216.09
2023-04-18T06:05:17.062Z,215.70
2023-04-18T06:06:16.808Z,217.69
2023-04-18T06:07:16.752Z,219.06
2023-04-18T06:08:16.709Z,220.58
2023-04-18T06:09:16.670Z,222.92
2023-04-18T06:10:16.645Z,223.53
2023-04-18T06:11:16.564Z,225.32
2023-04-18T06:12:16.555Z,227.57
2023-04-18T06:13:16.513Z,227.91
2023-04-18T06:14:16.609Z,230.38
2023-04-18T06:15:16.434Z,235.92
2023-04-18T06:16:16.429Z,242.92
2023-04-18T06:17:16.345Z,245.42
2023-04-18T06:18:16.283Z,249.37
2023-04-18T06:19:16.461Z,250.00
2023-04-18T06:20:16.225Z,250.19
2023-04-18T06:21:16.137Z,249.44
2023-04-18T06:22:16.117Z,249.64
2023-04-18T06:23:16.083Z,250.14
2023-04-18T06:24:16.244Z,250.00
2023-04-18T06:25:16.010Z,249.64
2023-04-18T06:26:15.932Z,249.24
2023-04-18T06:27:28.293Z,250.00
2023-04-18T06:28:16.837Z,250.17
2023-04-18T06:29:15.774Z,250.73
2023-04-18T06:30:15.744Z,251.38
2023-04-18T06:31:15.682Z,251.58
2023-04-18T06:32:15.607Z,252.42
2023-04-18T06:33:15.592Z,248.44
2023-04-18T06:34:15.786Z,249.68
2023-04-18T06:35:15.547Z,249.04
2023-04-18T06:36:15.450Z,246.82
2023-04-18T06:37:15.387Z,246.26
2023-04-18T06:38:15.376Z,244.94
2023-04-18T06:39:15.478Z,245.26
2023-04-18T06:40:15.278Z,248.21
2023-04-18T06:41:15.284Z,249.09
2023-04-18T06:42:15.212Z,248.31
2023-04-18T06:43:15.182Z,248.54
2023-04-18T06:44:15.161Z,249.46
2023-04-18T06:45:15.424Z,248.66
2023-04-18T06:46:15.091Z,246.51
2023-04-18T06:47:15.435Z,244.65
2023-04-18T06:48:14.949Z,243.83
2023-04-18T06:49:14.890Z,245.41
2023-04-18T06:50:14.908Z,244.50
2023-04-18T06:51:14.821Z,247.74
2023-04-18T06:52:14.781Z,247.42
2023-04-18T06:53:14.774Z,249.66
2023-04-18T06:54:14.862Z,249.59
2023-04-18T06:55:14.757Z,249.13
2023-04-18T06:56:14.745Z,249.05
2023-04-18T06:57:14.685Z,248.39
2023-04-18T06:58:14.674Z,248.64
2023-04-18T06:59:15.057Z,249.31
2023-04-18T07:00:14.606Z,250.00
2023-04-18T07:01:14.676Z,249.85
2023-04-18T07:02:14.618Z,249.94
2023-04-18T07:03:14.664Z,248.88
2023-04-18T07:04:14.726Z,249.21
2023-04-18T07:05:14.546Z,248.74
2023-04-18T07:06:14.524Z,246.52
2023-04-18T07:07:14.562Z,245.91
2023-04-18T07:08:14.464Z,246.27
2023-04-18T07:09:14.999Z,246.69
2023-04-18T07:10:14.472Z,246.77
2023-04-18T07:11:14.417Z,246.98
2023-04-18T07:12:14.426Z,246.03
2023-04-18T07:13:14.415Z,244.48
2023-04-18T07:14:14.807Z,242.29
2023-04-18T07:15:14.391Z,247.92
2023-04-18T07:16:14.445Z,249.28
2023-04-18T07:17:14.397Z,247.40
2023-04-18T07:18:18.024Z,250.00
2023-04-18T07:19:15.245Z,250.18
2023-04-18T07:20:14.394Z,250.91
2023-04-18T07:21:14.175Z,252.08
2023-04-18T07:22:14.105Z,253.62
2023-04-18T07:23:14.053Z,255.15
2023-04-18T07:24:14.407Z,248.49
2023-04-18T07:25:14.013Z,248.28
2023-04-18T07:26:14.015Z,245.99
2023-04-18T07:27:13.913Z,245.19
2023-04-18T07:28:13.864Z,241.77
2023-04-18T07:29:13.812Z,210.25
2023-04-18T07:30:13.722Z,185.53
2023-04-18T07:31:13.793Z,173.81
2023-04-18T07:32:13.671Z,169.61
2023-04-18T07:33:13.641Z,178.79
2023-04-18T07:34:14.197Z,193.99
2023-04-18T07:35:13.643Z,243.17
2023-04-18T07:36:13.584Z,249.97
2023-04-18T07:37:15.052Z,240.31
2023-04-18T07:38:13.606Z,223.30
2023-04-18T07:39:14.003Z,204.10
2023-04-18T07:40:13.687Z,193.43
2023-04-18T07:41:13.797Z,191.51
2023-04-18T07:42:13.740Z,186.83
2023-04-18T07:43:13.864Z,181.62
2023-04-18T07:44:14.245Z,180.70
2023-04-18T07:45:13.931Z,186.89
2023-04-18T07:46:14.028Z,185.88
2023-04-18T07:47:14.046Z,184.86
2023-04-18T07:48:14.121Z,170.89
2023-04-18T07:49:14.663Z,162.14
2023-04-18T07:50:14.145Z,157.01
2023-04-18T07:51:14.213Z,161.77
2023-04-18T07:52:14.216Z,170.56
2023-04-18T07:53:14.294Z,177.21
2023-04-18T07:54:14.567Z,182.02
2023-04-18T07:55:14.345Z,187.03
2023-04-18T07:56:14.487Z,192.47
2023-04-18T07:57:14.400Z,195.01
2023-04-18T07:58:14.393Z,199.32
2023-04-18T07:59:14.599Z,202.03
2023-04-18T08:00:14.439Z,204.88
2023-04-18T08:01:14.478Z,206.69
2023-04-18T08:02:14.525Z,207.28
2023-04-18T08:03:14.644Z,209.16
2023-04-18T08:04:14.561Z,209.81
2023-04-18T08:05:14.594Z,211.90
2023-04-18T08:06:14.514Z,212.87
2023-04-18T08:07:14.519Z,214.47
2023-04-18T08:08:14.558Z,216.46
2023-04-18T08:09:14.908Z,217.26
2023-04-18T08:10:14.998Z,219.01
2023-04-18T08:11:14.525Z,220.31
2023-04-18T08:12:14.492Z,222.82
2023-04-18T08:13:14.482Z,225.59
2023-04-18T08:14:14.503Z,227.50
2023-04-18T08:15:14.485Z,229.16
2023-04-18T08:16:17.010Z,230.12
2023-04-18T08:17:14.416Z,232.97
2023-04-18T08:18:14.362Z,235.88
2023-04-18T08:19:14.513Z,236.66
2023-04-18T08:20:14.518Z,237.61
2023-04-18T08:21:14.239Z,237.16
2023-04-18T08:22:14.211Z,240.29
2023-04-18T08:23:14.148Z,240.21
2023-04-18T08:24:14.129Z,241.80
2023-04-18T08:25:14.055Z,242.80
2023-04-18T08:26:14.009Z,242.07
2023-04-18T08:27:14.065Z,246.23
2023-04-18T08:28:13.949Z,247.48
2023-04-18T08:29:14.071Z,249.41
2023-04-18T08:30:13.854Z,249.57
2023-04-18T08:31:13.833Z,248.20
2023-04-18T08:32:14.528Z,248.97
2023-04-18T08:33:13.744Z,250.00
2023-04-18T08:34:13.669Z,249.49
2023-04-18T08:35:13.627Z,248.74
2023-04-18T08:36:13.571Z,248.21
2023-04-18T08:37:13.525Z,248.65
2023-04-18T08:38:13.547Z,246.72
2023-04-18T08:39:13.742Z,244.36
2023-04-18T08:40:13.530Z,244.27
2023-04-18T08:41:13.354Z,238.81
2023-04-18T08:42:13.364Z,251.19
2023-04-18T08:43:13.267Z,279.94
2023-04-18T08:44:13.493Z,320.09
2023-04-18T08:45:13.479Z,309.13
2023-04-18T08:46:13.179Z,285.92
2023-04-18T08:47:13.228Z,266.43
2023-04-18T08:48:13.147Z,250.00
2023-04-18T08:49:13.424Z,220.99
2023-04-18T08:50:13.567Z,181.00
2023-04-18T08:51:12.999Z,125.47
2023-04-18T08:52:12.941Z,95.42
2023-04-18T08:53:12.919Z,93.86
2023-04-18T08:54:12.878Z,100.09
2023-04-18T08:55:12.831Z,100.78
2023-04-18T08:56:12.793Z,106.29
2023-04-18T08:57:12.778Z,107.36
2023-04-18T08:58:12.770Z,101.44
2023-04-18T08:59:13.004Z,97.14
2023-04-18T09:00:13.026Z,95.61
2023-04-18T09:01:12.700Z,88.96
2023-04-18T09:02:12.708Z,82.73
2023-04-18T09:03:12.623Z,80.21
2023-04-18T09:04:12.579Z,80.23
2023-04-18T09:05:12.517Z,79.34
2023-04-18T09:06:12.550Z,76.24
2023-04-18T09:07:12.474Z,73.18
2023-04-18T09:08:12.441Z,68.12
2023-04-18T09:09:12.643Z,60.59
2023-04-18T09:10:12.668Z,67.04
2023-04-18T09:11:12.474Z,73.22
2023-04-18T09:12:12.495Z,79.13
2023-04-18T09:13:12.506Z,86.63
2023-04-18T09:14:12.712Z,90.19
2023-04-18T09:15:12.526Z,90.44
2023-04-18T09:16:12.610Z,94.18
2023-04-18T09:17:12.578Z,101.24
2023-04-18T09:18:12.631Z,100.72
2023-04-18T09:19:13.146Z,101.76
2023-04-18T09:20:12.523Z,103.80
2023-04-18T09:21:12.557Z,104.69
2023-04-18T09:22:12.540Z,106.77
2023-04-18T09:23:12.516Z,118.21
2023-04-18T09:24:12.779Z,122.30
2023-04-18T09:25:12.551Z,124.54
2023-04-18T09:26:12.503Z,131.43
2023-04-18T09:27:12.452Z,135.22
2023-04-18T09:28:12.449Z,139.05
2023-04-18T09:29:12.537Z,140.57
2023-04-18T09:30:12.468Z,143.65
2023-04-18T09:31:12.454Z,143.68
2023-04-18T09:32:12.377Z,144.69
2023-04-18T09:33:12.386Z,146.01
2023-04-18T09:34:12.533Z,148.87
2023-04-18T09:35:12.557Z,149.63
2023-04-18T09:36:12.410Z,147.23
2023-04-18T09:37:12.395Z,104.99
2023-04-18T09:38:12.382Z,83.03
2023-04-18T09:39:12.502Z,85.50
2023-04-18T09:40:12.330Z,94.70
2023-04-18T09:41:12.415Z,100.51
2023-04-18T09:42:12.311Z,106.51
2023-04-18T09:43:12.325Z,118.88
2023-04-18T09:44:15.005Z,103.10
2023-04-18T09:45:12.522Z,82.17
2023-04-18T09:46:12.190Z,70.52
2023-04-18T09:47:12.134Z,49.46
2023-04-18T09:48:12.145Z,39.62
2023-04-18T09:49:12.313Z,54.38
2023-04-18T09:50:12.577Z,69.57
2023-04-18T09:51:12.054Z,82.10
2023-04-18T09:52:11.995Z,97.70
2023-04-18T09:53:11.959Z,110.23
2023-04-18T09:54:12.256Z,119.58
2023-04-18T09:55:12.018Z,129.92
2023-04-18T09:56:11.835Z,137.38
2023-04-18T09:57:11.792Z,139.62
2023-04-18T09:58:11.757Z,144.78
2023-04-18T09:59:11.816Z,148.93
2023-04-18T10:00:11.664Z,154.45
2023-04-18T10:01:11.627Z,154.22
2023-04-18T10:02:11.623Z,157.15
2023-04-18T10:03:11.602Z,155.00
2023-04-18T10:04:11.631Z,155.64
2023-04-18T10:05:11.533Z,158.24
2023-04-18T10:06:11.453Z,162.23
2023-04-18T10:07:11.358Z,164.19
2023-04-18T10:08:11.349Z,166.16
2023-04-18T10:09:11.408Z,166.41
2023-04-18T10:10:11.264Z,167.73
2023-04-18T10:11:11.189Z,169.28
2023-04-18T10:12:13.070Z,170.74
2023-04-18T10:13:11.105Z,173.31
2023-04-18T10:14:11.010Z,174.04
2023-04-18T10:15:10.985Z,174.99
2023-04-18T10:16:10.928Z,173.17
2023-04-18T10:17:10.863Z,175.35
2023-04-18T10:18:10.875Z,176.58
2023-04-18T10:19:10.849Z,174.99
2023-04-18T10:20:10.716Z,173.80
2023-04-18T10:21:10.640Z,173.42
2023-04-18T10:22:10.627Z,171.89
2023-04-18T10:23:10.636Z,173.02
2023-04-18T10:24:10.639Z,173.26
2023-04-18T10:25:10.643Z,174.68
2023-04-18T10:26:10.663Z,174.03
2023-04-18T10:27:10.629Z,175.26
2023-04-18T10:28:10.683Z,176.02
2023-04-18T10:29:10.683Z,175.34
2023-04-18T10:30:10.680Z,176.82
2023-04-18T10:31:11.073Z,177.52
2023-04-18T10:32:10.654Z,178.19
2023-04-18T10:33:18.402Z,178.53
2023-04-18T10:34:11.584Z,178.63
2023-04-18T10:35:10.518Z,178.96
2023-04-18T10:36:10.457Z,179.60
2023-04-18T10:37:10.412Z,181.23
2023-04-18T10:38:10.382Z,181.57
2023-04-18T10:39:10.363Z,182.59
2023-04-18T10:40:10.275Z,185.66
2023-04-18T10:41:10.547Z,189.41
2023-04-18T10:42:10.158Z,181.50
2023-04-18T10:43:10.101Z,173.88
2023-04-18T10:44:10.050Z,173.28
2023-04-18T10:45:09.996Z,174.39
2023-04-18T10:46:17.344Z,173.31
2023-04-18T10:47:10.933Z,173.41
2023-04-18T10:48:09.961Z,150.33
2023-04-18T10:49:09.785Z,85.78
2023-04-18T10:50:09.728Z,37.94
2023-04-18T10:51:09.738Z,3.13
2023-04-18T10:52:10.893Z,0.34
2023-04-18T10:53:09.857Z,7.70
2023-04-18T10:54:09.848Z,0.00
2023-04-18T10:55:09.828Z,21.07
2023-04-18T10:56:10.043Z,39.23
2023-04-18T10:57:09.760Z,50.23
2023-04-18T10:58:09.777Z,57.43
2023-04-18T10:59:09.740Z,68.60
2023-04-18T11:00:09.771Z,78.38
2023-04-18T11:01:09.814Z,83.67
2023-04-18T11:02:09.734Z,86.01
2023-04-18T11:03:09.886Z,95.27
2023-04-18T11:04:09.885Z,107.97
2023-04-18T11:05:09.793Z,118.09
2023-04-18T11:06:09.778Z,122.16
2023-04-18T11:07:09.762Z,125.67
2023-04-18T11:08:09.733Z,126.36
2023-04-18T11:09:09.786Z,128.89
2023-04-18T11:10:09.949Z,127.97
2023-04-18T11:11:10.038Z,125.74
2023-04-18T11:12:09.737Z,127.82
2023-04-18T11:13:09.726Z,128.25
2023-04-18T11:14:09.702Z,130.79
2023-04-18T11:15:10.710Z,130.97
2023-04-18T11:16:09.642Z,131.62
2023-04-18T11:17:09.592Z,132.84
2023-04-18T11:18:09.510Z,135.88
2023-04-18T11:19:09.388Z,141.47
2023-04-18T11:20:09.381Z,143.62
2023-04-18T11:21:09.279Z,143.80
2023-04-18T11:22:09.236Z,145.48
2023-04-18T11:23:09.199Z,148.08
2023-04-18T11:24:09.109Z,150.67
2023-04-18T11:25:09.109Z,152.05
2023-04-18T11:26:09.023Z,153.78
2023-04-18T11:27:08.935Z,154.56
2023-04-18T11:28:09.575Z,152.90
2023-04-18T11:29:08.839Z,152.58
2023-04-18T11:30:08.839Z,153.51
2023-04-18T11:31:09.554Z,156.52
2023-04-18T11:32:08.760Z,158.69
2023-04-18T11:33:08.960Z,160.41
2023-04-18T11:34:08.640Z,158.98
2023-04-18T11:35:08.522Z,160.68
2023-04-18T11:36:08.576Z,158.17
2023-04-18T11:37:08.467Z,157.05
2023-04-18T11:38:08.430Z,156.52
2023-04-18T11:39:08.410Z,154.67
2023-04-18T11:40:08.397Z,152.04
2023-04-18T11:41:08.363Z,145.32
2023-04-18T11:42:08.320Z,138.69
2023-04-18T11:43:08.310Z,137.25
2023-04-18T11:44:08.282Z,141.66
2023-04-18T11:45:08.260Z,144.73
2023-04-18T11:46:08.258Z,146.16
2023-04-18T11:47:08.442Z,147.25
2023-04-18T11:48:08.245Z,148.56
2023-04-18T11:49:08.150Z,149.12
2023-04-18T11:50:08.191Z,148.41
2023-04-18T11:51:08.125Z,149.47
2023-04-18T11:52:08.125Z,149.09
2023-04-18T11:53:08.112Z,148.54
2023-04-18T11:54:08.072Z,148.86
2023-04-18T11:55:08.075Z,148.95
2023-04-18T11:56:08.103Z,147.92
2023-04-18T11:57:08.265Z,148.46
2023-04-18T11:58:08.002Z,146.60
2023-04-18T11:59:08.019Z,148.30
2023-04-18T12:00:07.963Z,148.00
2023-04-18T12:01:08.091Z,148.50
2023-04-18T12:02:16.012Z,147.97
2023-04-18T12:03:09.998Z,148.04
2023-04-18T12:04:08.167Z,148.01
2023-04-18T12:05:08.186Z,148.09
2023-04-18T12:06:07.814Z,147.74
2023-04-18T12:07:07.672Z,144.00
2023-04-18T12:08:07.630Z,142.11
2023-04-18T12:09:07.583Z,140.95
2023-04-18T12:10:07.520Z,141.68
2023-04-18T12:11:07.484Z,141.83
2023-04-18T12:12:07.406Z,142.21
2023-04-18T12:13:07.353Z,143.28
2023-04-18T12:14:07.327Z,142.94
2023-04-18T12:15:07.326Z,142.59
2023-04-18T12:16:07.301Z,143.01
2023-04-18T12:17:07.228Z,143.29
2023-04-18T12:18:07.218Z,144.02
2023-04-18T12:19:07.128Z,143.98
2023-04-18T12:20:07.092Z,140.98
2023-04-18T12:21:07.092Z,142.72
2023-04-18T12:22:07.008Z,142.27
2023-04-18T12:23:06.960Z,143.16
2023-04-18T12:24:06.927Z,144.06
2023-04-18T12:25:06.877Z,143.61
2023-04-18T12:26:06.831Z,143.39
2023-04-18T12:27:06.768Z,144.53
2023-04-18T12:28:06.700Z,143.19
2023-04-18T12:29:06.674Z,144.90
2023-04-18T12:30:06.593Z,144.37